createdAt,value
2022-10-28T00:01:14.253Z,20.43
2022-10-28T00:03:44.500Z,20.00
2022-10-28T00:06:20.881Z,9.20
2022-10-28T00:08:48.303Z,16.97
2022-10-28T00:11:20.778Z,13.23
2022-10-28T00:13:48.149Z,9.37
2022-10-28T00:16:18.065Z,9.33
2022-10-28T00:18:45.468Z,16.50
2022-10-28T00:21:18.245Z,17.07
2022-10-28T00:23:45.767Z,9.97
2022-10-28T00:26:15.515Z,10.20
2022-10-28T00:28:44.249Z,8.07
2022-10-28T00:31:12.758Z,9.13
2022-10-28T00:33:39.731Z,15.17
2022-10-28T00:36:21.561Z,11.17
2022-10-28T00:38:50.099Z,13.53
2022-10-28T00:41:23.711Z,8.10
2022-10-28T00:43:53.511Z,14.23
2022-10-28T00:46:44.997Z,14.00
2022-10-28T00:49:18.783Z,12.27
2022-10-28T00:51:48.839Z,6.60
2022-10-28T00:54:17.710Z,7.17
2022-10-28T00:56:51.711Z,8.70
2022-10-28T00:59:22.984Z,10.57
2022-10-28T01:01:49.826Z,7.57
2022-10-28T01:04:17.091Z,14.83
2022-10-28T01:06:44.638Z,6.87
2022-10-28T01:09:11.375Z,8.03
2022-10-28T01:11:59.776Z,10.27
2022-10-28T01:14:26.525Z,9.37
2022-10-28T01:17:18.089Z,9.93
2022-10-28T01:20:19.244Z,13.57
2022-10-28T01:22:58.410Z,6.20
2022-10-28T01:25:54.024Z,8.83
2022-10-28T01:28:29.546Z,8.97
2022-10-28T01:31:12.224Z,11.83
2022-10-28T01:33:52.355Z,9.33
2022-10-28T01:36:31.248Z,11.03
2022-10-28T01:39:09.787Z,6.40
2022-10-28T01:41:54.159Z,6.63
2022-10-28T01:44:34.218Z,7.40
2022-10-28T01:47:09.535Z,4.47
2022-10-28T01:50:07.770Z,9.07
2022-10-28T01:52:34.869Z,12.47
2022-10-28T01:55:26.103Z,5.33
2022-10-28T01:57:56.764Z,10.57
2022-10-28T02:00:23.708Z,11.77
2022-10-28T02:02:51.420Z,9.03
2022-10-28T02:05:42.025Z,9.87
2022-10-28T02:08:36.309Z,6.33
2022-10-28T02:11:18.996Z,11.10
2022-10-28T02:13:59.572Z,7.93
2022-10-28T02:16:34.250Z,7.77
2022-10-28T02:19:15.850Z,9.50
2022-10-28T02:22:01.091Z,6.60
2022-10-28T02:25:09.328Z,9.37
2022-10-28T02:27:42.323Z,12.60
2022-10-28T02:30:18.523Z,7.77
2022-10-28T02:32:50.886Z,7.67
2022-10-28T02:35:25.555Z,7.97
2022-10-28T02:37:53.756Z,7.07
2022-10-28T02:40:26.395Z,8.40
2022-10-28T02:42:58.358Z,9.43
2022-10-28T02:45:44.927Z,9.07
2022-10-28T02:48:19.416Z,9.73
2022-10-28T02:50:53.453Z,7.77
2022-10-28T02:53:28.946Z,8.63
2022-10-28T02:55:58.667Z,6.73
2022-10-28T02:58:25.584Z,11.10
2022-10-28T03:00:52.324Z,12.97
2022-10-28T03:03:20.443Z,15.10
2022-10-28T03:05:47.318Z,9.20
2022-10-28T03:08:14.024Z,11.30
2022-10-28T03:10:40.692Z,10.10
2022-10-28T03:13:07.435Z,8.87
2022-10-28T03:15:34.454Z,6.57
2022-10-28T03:18:01.140Z,11.77
2022-10-28T03:20:27.835Z,7.63
2022-10-28T03:22:54.930Z,7.50
2022-10-28T03:25:22.072Z,9.23
2022-10-28T03:27:48.753Z,12.87
2022-10-28T03:30:15.616Z,7.67
2022-10-28T03:32:42.909Z,15.77
2022-10-28T03:35:09.765Z,10.73
2022-10-28T03:37:36.769Z,7.87
2022-10-28T03:40:08.646Z,9.37
2022-10-28T03:42:38.839Z,9.70
2022-10-28T03:45:09.131Z,11.40
2022-10-28T03:47:36.211Z,7.37
2022-10-28T03:50:03.556Z,6.83
2022-10-28T03:52:30.289Z,8.53
2022-10-28T03:54:57.028Z,11.57
2022-10-28T03:57:23.926Z,11.37
2022-10-28T03:59:50.757Z,4.97
2022-10-28T04:02:17.788Z,7.50
2022-10-28T04:04:44.749Z,6.40
2022-10-28T04:07:11.599Z,8.57
2022-10-28T04:09:39.288Z,7.77
2022-10-28T04:12:07.613Z,17.10
2022-10-28T04:14:35.286Z,7.67
2022-10-28T04:17:03.391Z,5.93
2022-10-28T04:19:30.260Z,5.53
2022-10-28T04:21:56.942Z,7.40
2022-10-28T04:24:23.667Z,7.00
2022-10-28T04:26:50.319Z,11.43
2022-10-28T04:29:17.019Z,10.90
2022-10-28T04:31:45.479Z,8.83
2022-10-28T04:34:14.548Z,7.53
2022-10-28T04:36:41.192Z,10.10
2022-10-28T04:39:09.720Z,7.10
2022-10-28T04:41:36.482Z,10.83
2022-10-28T04:44:03.605Z,9.40
2022-10-28T04:46:30.298Z,9.27
2022-10-28T04:48:57.008Z,9.87
2022-10-28T04:51:23.682Z,11.57
2022-10-28T04:53:50.529Z,7.83
2022-10-28T04:56:17.269Z,7.57
2022-10-28T04:58:43.969Z,12.87
2022-10-28T05:01:10.885Z,6.53
2022-10-28T05:03:37.734Z,9.77
2022-10-28T05:06:05.101Z,10.47
2022-10-28T05:08:31.799Z,10.03
2022-10-28T05:10:58.540Z,10.53
2022-10-28T05:13:25.396Z,9.63
2022-10-28T05:15:52.290Z,11.37
2022-10-28T05:18:19.110Z,9.77
2022-10-28T05:20:45.789Z,8.87
2022-10-28T05:23:12.513Z,7.73
2022-10-28T05:25:39.237Z,7.43
2022-10-28T05:28:06.017Z,9.17
2022-10-28T05:30:32.795Z,6.33
2022-10-28T05:33:02.297Z,8.30
2022-10-28T05:35:30.530Z,8.33
2022-10-28T05:37:58.143Z,16.73
2022-10-28T05:40:25.133Z,15.53
2022-10-28T05:42:52.411Z,11.80
2022-10-28T05:45:19.389Z,10.47
2022-10-28T05:47:48.108Z,16.87
2022-10-28T05:50:16.977Z,12.30
2022-10-28T05:52:48.516Z,10.33
2022-10-28T05:55:16.048Z,9.97
2022-10-28T05:57:42.937Z,12.67
2022-10-28T06:00:10.501Z,16.53
2022-10-28T06:02:37.326Z,11.47
2022-10-28T06:05:04.475Z,10.77
2022-10-28T06:07:31.259Z,9.87
2022-10-28T06:09:57.958Z,13.13
2022-10-28T06:12:23.247Z,7.87
2022-10-28T06:14:50.197Z,11.00
2022-10-28T06:17:16.984Z,15.23
2022-10-28T06:19:43.762Z,8.60
2022-10-28T06:22:11.026Z,14.13
2022-10-28T06:24:37.752Z,10.07
2022-10-28T06:27:05.576Z,12.67
2022-10-28T06:29:33.217Z,15.47
2022-10-28T06:32:00.039Z,9.77
2022-10-28T06:34:26.833Z,10.07
2022-10-28T06:36:53.662Z,8.40
2022-10-28T06:39:21.354Z,7.10
2022-10-28T06:41:48.798Z,7.87
2022-10-28T06:44:15.826Z,9.87
2022-10-28T06:46:44.363Z,10.43
2022-10-28T06:49:11.092Z,9.27
2022-10-28T06:51:38.005Z,9.97
2022-10-28T06:54:04.920Z,7.97
2022-10-28T06:56:31.671Z,11.30
2022-10-28T06:58:58.844Z,12.47
2022-10-28T07:01:26.359Z,12.43
2022-10-28T07:03:53.322Z,8.47
2022-10-28T07:06:20.803Z,9.93
2022-10-28T07:08:47.632Z,10.00
2022-10-28T07:11:14.666Z,10.37
2022-10-28T07:13:42.520Z,13.00
2022-10-28T07:16:11.189Z,17.53
2022-10-28T07:18:38.085Z,12.47
2022-10-28T07:21:05.127Z,13.07
2022-10-28T07:23:33.076Z,14.53
2022-10-28T07:26:00.441Z,13.87
2022-10-28T07:28:27.963Z,18.63
2022-10-28T07:30:55.012Z,7.47
2022-10-28T07:33:21.991Z,10.73
2022-10-28T07:35:48.956Z,10.27
2022-10-28T07:38:16.028Z,9.70
2022-10-28T07:40:42.878Z,13.10
2022-10-28T07:43:10.488Z,12.70
2022-10-28T07:45:37.935Z,16.67
2022-10-28T07:48:05.984Z,13.30
2022-10-28T07:50:32.949Z,10.87
2022-10-28T07:53:00.305Z,13.00
2022-10-28T07:55:27.494Z,14.00
2022-10-28T07:57:54.628Z,12.83
2022-10-28T08:00:21.789Z,12.53
2022-10-28T08:02:48.588Z,13.07
2022-10-28T08:05:15.985Z,16.40
2022-10-28T08:07:42.940Z,17.67
2022-10-28T08:10:09.885Z,18.67
2022-10-28T08:12:36.664Z,13.20
2022-10-28T08:15:05.216Z,14.37
2022-10-28T08:17:32.228Z,16.27
2022-10-28T08:20:02.467Z,13.43
2022-10-28T08:22:29.195Z,12.33
2022-10-28T08:24:56.031Z,13.10
2022-10-28T08:27:23.653Z,13.93
2022-10-28T08:29:50.418Z,16.40
2022-10-28T08:32:17.170Z,14.43
2022-10-28T08:34:43.967Z,21.33
2022-10-28T08:37:11.375Z,11.23
2022-10-28T08:39:38.395Z,12.43
2022-10-28T08:42:31.058Z,12.93
2022-10-28T08:45:27.266Z,8.93
2022-10-28T08:48:18.883Z,10.87
2022-10-28T08:50:50.344Z,12.53
2022-10-28T08:53:23.423Z,12.33
2022-10-28T08:55:52.751Z,15.43
2022-10-28T08:58:19.542Z,12.53
2022-10-28T09:00:54.952Z,11.83
2022-10-28T09:03:40.531Z,13.40
2022-10-28T09:06:09.460Z,18.80
2022-10-28T09:08:42.591Z,9.30
2022-10-28T09:11:45.291Z,12.07
2022-10-28T09:14:46.883Z,14.80
2022-10-28T09:17:46.058Z,11.13
2022-10-28T09:20:18.780Z,14.53
2022-10-28T09:23:06.186Z,13.30
2022-10-28T09:25:57.412Z,9.97
2022-10-28T09:28:37.761Z,12.97
2022-10-28T09:31:25.777Z,13.50
2022-10-28T09:34:21.468Z,12.60
2022-10-28T09:37:48.819Z,18.10
2022-10-28T09:40:20.605Z,11.70
2022-10-28T09:43:27.173Z,10.10
2022-10-28T09:45:58.407Z,17.23
2022-10-28T09:48:37.104Z,11.73
2022-10-28T09:51:04.321Z,14.00
2022-10-28T09:54:03.406Z,19.20
2022-10-28T09:56:31.574Z,12.53
2022-10-28T09:59:03.234Z,15.20
2022-10-28T10:01:37.966Z,10.40
2022-10-28T10:04:19.206Z,15.13
2022-10-28T10:06:50.761Z,11.70
2022-10-28T10:09:28.655Z,11.63
2022-10-28T10:12:01.102Z,15.03
2022-10-28T10:14:38.531Z,12.43
2022-10-28T10:17:10.215Z,12.17
2022-10-28T10:20:12.361Z,13.97
2022-10-28T10:22:41.547Z,15.93
2022-10-28T10:25:23.341Z,8.50
2022-10-28T10:27:57.922Z,15.83
2022-10-28T10:30:31.792Z,10.93
2022-10-28T10:32:59.059Z,8.50
2022-10-28T10:35:32.803Z,12.77
2022-10-28T10:38:03.018Z,8.63
2022-10-28T10:40:33.583Z,10.80
2022-10-28T10:43:15.842Z,15.23
2022-10-28T10:45:53.085Z,9.37
2022-10-28T10:48:20.140Z,11.83
2022-10-28T10:50:48.952Z,18.27
2022-10-28T10:53:20.698Z,15.00
2022-10-28T10:56:04.783Z,15.80
2022-10-28T10:58:35.446Z,11.07
2022-10-28T11:01:05.707Z,17.23
2022-10-28T11:03:36.940Z,10.07
2022-10-28T11:06:35.922Z,10.57
2022-10-28T11:09:03.571Z,9.60
2022-10-28T11:11:39.151Z,9.00
2022-10-28T11:14:14.682Z,13.87
2022-10-28T11:16:51.674Z,8.37
2022-10-28T11:19:39.804Z,7.50
2022-10-28T11:22:31.650Z,9.00
2022-10-28T11:25:17.230Z,10.30
2022-10-28T11:28:04.363Z,8.57
2022-10-28T11:30:44.446Z,9.60
2022-10-28T11:33:30.047Z,10.90
2022-10-28T11:36:07.994Z,12.73
2022-10-28T11:38:45.813Z,12.57
2022-10-28T11:41:15.600Z,16.23
2022-10-28T11:44:00.912Z,9.73
2022-10-28T11:47:06.223Z,6.77
2022-10-28T11:50:05.590Z,12.63
2022-10-28T11:52:57.278Z,7.63
2022-10-28T11:55:47.656Z,9.43
2022-10-28T11:58:41.949Z,14.27
2022-10-28T12:01:39.852Z,7.97
2022-10-28T12:04:50.713Z,8.90
2022-10-28T12:07:39.360Z,12.13
2022-10-28T12:10:16.584Z,12.60
2022-10-28T12:12:53.735Z,15.23
2022-10-28T12:15:39.209Z,8.07
2022-10-28T12:18:40.447Z,7.47
2022-10-28T12:21:22.423Z,8.47
2022-10-28T12:23:49.976Z,17.10
2022-10-28T12:26:19.871Z,8.47
2022-10-28T12:28:57.335Z,10.60
2022-10-28T12:31:34.415Z,7.00
2022-10-28T12:34:06.083Z,5.73
2022-10-28T12:36:52.607Z,6.23
2022-10-28T12:39:28.084Z,7.03
2022-10-28T12:42:24.140Z,8.23
2022-10-28T12:44:54.041Z,9.20
2022-10-28T12:47:43.355Z,5.97
2022-10-28T12:50:40.144Z,6.80
2022-10-28T12:53:34.156Z,7.87
2022-10-28T12:56:03.001Z,6.60
2022-10-28T12:58:32.356Z,7.10
2022-10-28T13:01:13.142Z,6.07
2022-10-28T13:03:40.993Z,13.47
2022-10-28T13:06:45.555Z,18.03
2022-10-28T13:09:54.167Z,10.37
2022-10-28T13:12:38.802Z,9.57
2022-10-28T13:15:11.406Z,12.40
2022-10-28T13:18:03.841Z,10.03
2022-10-28T13:21:04.152Z,13.03
2022-10-28T13:24:06.458Z,12.27
2022-10-28T13:26:35.778Z,17.07
2022-10-28T13:29:07.413Z,13.30
2022-10-28T13:31:44.158Z,14.53
2022-10-28T13:34:13.828Z,14.10
2022-10-28T13:36:43.618Z,14.53
2022-10-28T13:39:28.693Z,9.23
2022-10-28T13:42:13.825Z,8.60
2022-10-28T13:44:52.487Z,11.27
2022-10-28T13:47:33.459Z,7.60
2022-10-28T13:50:06.602Z,9.10
2022-10-28T13:52:38.189Z,9.53
2022-10-28T13:55:14.068Z,14.63
2022-10-28T13:57:46.254Z,12.20
2022-10-28T14:00:20.183Z,8.63
2022-10-28T14:02:49.652Z,9.10
2022-10-28T14:05:19.287Z,11.57
2022-10-28T14:07:56.743Z,10.13
2022-10-28T14:10:27.022Z,13.63
2022-10-28T14:13:03.651Z,10.07
2022-10-28T14:15:39.207Z,19.77
2022-10-28T14:18:37.307Z,7.60
2022-10-28T14:21:01.886Z,7.73
2022-10-28T14:23:28.906Z,13.43
2022-10-28T14:25:56.406Z,6.83
2022-10-28T14:28:29.414Z,10.03
2022-10-28T14:31:08.884Z,15.00
2022-10-28T14:33:42.700Z,9.63
2022-10-28T14:36:20.432Z,10.33
2022-10-28T14:39:04.125Z,9.30
2022-10-28T14:42:05.066Z,12.47
2022-10-28T14:44:47.672Z,11.13
2022-10-28T14:47:43.334Z,9.47
2022-10-28T14:50:26.394Z,10.53
2022-10-28T14:52:55.433Z,11.97
2022-10-28T14:55:29.378Z,11.87
2022-10-28T14:58:21.153Z,10.00
2022-10-28T15:01:19.084Z,10.83
2022-10-28T15:03:54.559Z,16.93
2022-10-28T15:06:33.419Z,14.50
2022-10-28T15:09:17.449Z,12.07
2022-10-28T15:11:47.490Z,8.13
2022-10-28T15:14:24.730Z,21.00
2022-10-28T15:16:52.327Z,11.67
2022-10-28T15:19:23.885Z,8.47
2022-10-28T15:22:12.534Z,14.20
2022-10-28T15:24:43.109Z,12.43
2022-10-28T15:27:14.020Z,14.93
2022-10-28T15:29:42.697Z,11.27
2022-10-28T15:32:19.713Z,8.80
2022-10-28T15:34:47.535Z,11.97
2022-10-28T15:37:19.643Z,11.13
2022-10-28T15:39:46.606Z,11.13
2022-10-28T15:42:46.957Z,9.10
2022-10-28T15:45:20.401Z,11.07
2022-10-28T15:47:48.719Z,11.47
2022-10-28T15:50:15.522Z,13.17
2022-10-28T15:52:44.151Z,10.53
2022-10-28T15:55:23.729Z,9.70
2022-10-28T15:58:22.470Z,8.83
2022-10-28T16:00:57.436Z,13.07
2022-10-28T16:03:45.800Z,9.07
2022-10-28T16:06:29.300Z,12.17
2022-10-28T16:09:26.409Z,10.10
2022-10-28T16:11:59.037Z,9.83
2022-10-28T16:14:38.631Z,8.53
2022-10-28T16:17:20.439Z,7.67
2022-10-28T16:20:19.289Z,6.83
2022-10-28T16:22:47.053Z,11.67
2022-10-28T16:25:20.151Z,9.20
2022-10-28T16:27:48.389Z,11.20
2022-10-28T16:30:15.661Z,6.63
2022-10-28T16:32:49.934Z,8.33
2022-10-28T16:35:22.093Z,13.93
2022-10-28T16:37:53.813Z,13.13
2022-10-28T16:40:49.824Z,9.40
2022-10-28T16:43:24.505Z,7.93
2022-10-28T16:45:53.526Z,14.63
2022-10-28T16:48:23.634Z,19.60
2022-10-28T16:50:57.406Z,11.87
2022-10-28T16:53:24.251Z,14.20
2022-10-28T16:55:51.316Z,13.30
2022-10-28T16:58:21.810Z,16.73
2022-10-28T17:00:51.919Z,16.27
2022-10-28T17:03:18.767Z,15.43
2022-10-28T17:05:45.840Z,14.60
2022-10-28T17:08:12.686Z,14.50
2022-10-28T17:10:40.936Z,18.03
2022-10-28T17:13:13.819Z,13.90
2022-10-28T17:15:41.527Z,16.40
2022-10-28T17:18:11.032Z,18.20
2022-10-28T17:20:37.831Z,12.90
2022-10-28T17:23:05.490Z,18.57
2022-10-28T17:25:32.463Z,19.57
2022-10-28T17:27:59.354Z,16.07
2022-10-28T17:30:26.434Z,12.83
2022-10-28T17:32:54.556Z,17.33
2022-10-28T17:35:22.428Z,20.50
2022-10-28T17:37:49.628Z,13.37
2022-10-28T17:40:19.849Z,22.77
2022-10-28T17:42:46.696Z,19.63
2022-10-28T17:45:17.875Z,18.10
2022-10-28T17:47:48.301Z,15.97
2022-10-28T17:50:15.342Z,14.90
2022-10-28T17:52:42.381Z,13.17
2022-10-28T17:55:09.649Z,18.63
2022-10-28T17:57:36.437Z,13.77
2022-10-28T18:00:03.752Z,14.87
2022-10-28T18:02:30.735Z,15.97
2022-10-28T18:04:57.529Z,12.90
2022-10-28T18:07:24.431Z,17.03
2022-10-28T18:09:51.265Z,16.50
2022-10-28T18:12:17.925Z,16.07
2022-10-28T18:14:44.782Z,16.30
2022-10-28T18:17:14.237Z,10.27
2022-10-28T18:19:40.953Z,12.10
2022-10-28T18:22:07.606Z,19.23
2022-10-28T18:24:34.441Z,18.10
2022-10-28T18:27:01.173Z,17.07
2022-10-28T18:29:27.894Z,12.47
2022-10-28T18:31:55.451Z,21.67
2022-10-28T18:34:23.794Z,17.17
2022-10-28T18:36:51.642Z,14.70
2022-10-28T18:39:18.428Z,13.33
2022-10-28T18:41:45.474Z,24.33
2022-10-28T18:44:14.319Z,19.90
2022-10-28T18:46:42.033Z,16.80
2022-10-28T18:49:08.827Z,19.37
2022-10-28T18:51:35.719Z,18.57
2022-10-28T18:54:02.871Z,24.27
2022-10-28T18:56:30.339Z,26.50
2022-10-28T18:58:58.359Z,24.27
2022-10-28T19:01:27.859Z,17.87
2022-10-28T19:03:56.917Z,22.50
2022-10-28T19:06:24.774Z,17.77
2022-10-28T19:08:53.951Z,17.33
2022-10-28T19:11:22.067Z,22.93
2022-10-28T19:13:49.385Z,15.80
2022-10-28T19:16:16.117Z,17.10
2022-10-28T19:18:42.865Z,17.27
2022-10-28T19:21:14.324Z,16.67
2022-10-28T19:23:41.618Z,18.93
2022-10-28T19:26:09.810Z,22.40
2022-10-28T19:28:41.185Z,17.40
2022-10-28T19:31:12.191Z,18.00
2022-10-28T19:33:39.225Z,19.93
2022-10-28T19:36:18.522Z,20.03
2022-10-28T19:38:46.513Z,21.23
2022-10-28T19:41:24.521Z,16.83
2022-10-28T19:44:02.370Z,22.80
2022-10-28T19:46:31.634Z,19.03
2022-10-28T19:49:00.049Z,20.43
2022-10-28T19:51:29.437Z,18.40
2022-10-28T19:54:01.616Z,16.23
2022-10-28T19:56:30.341Z,16.33
2022-10-28T19:58:59.284Z,17.97
2022-10-28T20:01:28.356Z,18.73
2022-10-28T20:03:55.593Z,16.97
2022-10-28T20:06:25.473Z,15.03
2022-10-28T20:08:52.623Z,17.03
2022-10-28T20:11:28.781Z,21.97
2022-10-28T20:13:57.798Z,21.13
2022-10-28T20:16:25.530Z,20.07
2022-10-28T20:18:57.004Z,18.47
2022-10-28T20:21:26.114Z,28.33
2022-10-28T20:23:55.083Z,32.83
2022-10-28T20:26:24.382Z,31.73
2022-10-28T20:28:51.462Z,36.00
2022-10-28T20:31:20.884Z,38.70
2022-10-28T20:33:52.760Z,38.70
2022-10-28T20:36:31.080Z,39.37
2022-10-28T20:38:59.803Z,38.10
2022-10-28T20:41:29.073Z,23.10
2022-10-28T20:43:55.919Z,19.43
2022-10-28T20:46:23.904Z,20.40
2022-10-28T20:48:51.015Z,19.27
2022-10-28T20:51:18.049Z,16.00
2022-10-28T20:53:44.780Z,19.57
2022-10-28T20:56:33.380Z,14.77
2022-10-28T20:59:00.345Z,16.27
2022-10-28T21:01:29.868Z,17.53
2022-10-28T21:03:58.976Z,16.87
2022-10-28T21:06:26.484Z,16.60
2022-10-28T21:08:54.031Z,14.17
2022-10-28T21:11:23.706Z,16.33
2022-10-28T21:13:52.588Z,14.23
2022-10-28T21:16:20.277Z,17.33
2022-10-28T21:18:49.599Z,17.47
2022-10-28T21:21:17.475Z,15.97
2022-10-28T21:23:44.400Z,22.67
2022-10-28T21:26:12.938Z,15.57
2022-10-28T21:28:41.560Z,16.17
2022-10-28T21:31:14.160Z,14.10
2022-10-28T21:33:42.387Z,15.47
2022-10-28T21:36:17.016Z,17.83
2022-10-28T21:38:43.854Z,19.13
2022-10-28T21:41:15.986Z,23.87
2022-10-28T21:43:44.711Z,17.13
2022-10-28T21:46:11.998Z,20.97
2022-10-28T21:48:38.872Z,21.27
2022-10-28T21:51:11.816Z,29.10
2022-10-28T21:53:43.126Z,21.57
2022-10-28T21:56:19.153Z,24.90
2022-10-28T21:58:47.871Z,24.57
2022-10-28T22:01:17.813Z,25.40
2022-10-28T22:03:44.655Z,33.80
2022-10-28T22:06:11.656Z,31.37
2022-10-28T22:08:38.529Z,27.77
2022-10-28T22:11:08.407Z,26.13
2022-10-28T22:13:35.716Z,24.60
2022-10-28T22:16:04.640Z,18.93
2022-10-28T22:18:33.693Z,14.77
2022-10-28T22:21:08.954Z,17.40
2022-10-28T22:23:36.760Z,18.57
2022-10-28T22:26:05.689Z,19.87
2022-10-28T22:28:32.969Z,21.47
2022-10-28T22:31:06.043Z,22.90
2022-10-28T22:33:33.317Z,19.53
2022-10-28T22:36:02.403Z,16.93
2022-10-28T22:38:29.631Z,18.47
2022-10-28T22:41:12.774Z,16.00
2022-10-28T22:43:40.545Z,20.07
2022-10-28T22:46:07.277Z,13.70
2022-10-28T22:48:33.968Z,12.87
2022-10-28T22:51:00.972Z,11.67
2022-10-28T22:53:28.214Z,14.20
2022-10-28T22:55:55.620Z,10.70
2022-10-28T22:58:23.763Z,12.33
2022-10-28T23:03:40.164Z,12.93
2022-10-28T23:06:07.660Z,12.97
2022-10-28T23:08:35.266Z,14.70
2022-10-28T23:11:02.216Z,11.60
2022-10-28T23:13:29.020Z,18.90
2022-10-28T23:15:55.831Z,16.47
2022-10-28T23:18:27.073Z,13.37
2022-10-28T23:20:53.917Z,14.37
2022-10-28T23:23:20.663Z,12.40
2022-10-28T23:25:54.318Z,14.83
2022-10-28T23:28:21.481Z,10.70
2022-10-28T23:30:48.182Z,13.60
2022-10-28T23:33:14.994Z,10.10
2022-10-28T23:35:44.426Z,13.53
2022-10-28T23:38:11.870Z,13.53
2022-10-28T23:40:38.777Z,9.40
2022-10-28T23:43:05.558Z,10.90
2022-10-28T23:45:32.233Z,15.57
2022-10-28T23:47:59.007Z,13.47
2022-10-28T23:50:25.769Z,9.07
2022-10-28T23:52:55.811Z,12.93
2022-10-28T23:55:22.762Z,11.37
2022-10-28T23:57:49.489Z,11.07
